Time;durP1;ratioP1;P1;durP2;ratioP2;P2;SDS_P1;SDS_P2;PMS_P1;PMS_P2;Temp;Humidity;BMP_temperature;BMP_pressure;BME280_temperature;BME280_humidity;BME280_pressure;Samples;Min_cycle;Max_cycle;Signal;HPM_P1;HPM_P2
2023/06/12 00:01:08;;;;;;;10.07;4.95;;;18.20;91.10;;;;;;5116100;28;20153;-67
2023/06/12 00:03:34;;;;;;;5.75;4.50;;;18.10;91.30;;;;;;5116415;28;20452;-67
2023/06/12 00:06:00;;;;;;;7.18;4.25;;;18.10;91.10;;;;;;5116255;28;20059;-67
2023/06/12 00:08:30;;;;;;;6.25;4.40;;;18.10;91.40;;;;;;5116557;28;20063;-67
2023/06/12 00:10:57;;;;;;;6.83;5.10;;;18.10;91.20;;;;;;5116291;28;20357;-67
2023/06/12 00:13:23;;;;;;;7.95;4.68;;;18.10;91.00;;;;;;5098367;28;20278;-67
2023/06/12 00:15:48;;;;;;;10.25;4.65;;;18.10;91.10;;;;;;5116393;28;20028;-70
2023/06/12 00:18:15;;;;;;;6.97;4.20;;;18.10;91.10;;;;;;5116427;28;20026;-67
2023/06/12 00:20:40;;;;;;;8.00;4.88;;;18.10;91.50;;;;;;5116014;28;20104;-67
2023/06/12 00:23:09;;;;;;;6.20;4.30;;;18.10;91.60;;;;;;5115957;28;20061;-67
2023/06/12 00:25:35;;;;;;;7.78;4.78;;;18.10;91.20;;;;;;5116331;28;20028;-67
2023/06/12 00:28:00;;;;;;;9.63;4.50;;;18.10;91.30;;;;;;5115836;28;20023;-67
2023/06/12 00:30:26;;;;;;;7.35;5.00;;;18.10;91.00;;;;;;5127938;27;20084;-67
2023/06/12 00:32:51;;;;;;;6.72;4.80;;;18.10;91.00;;;;;;5135194;27;20138;-68
2023/06/12 00:35:18;;;;;;;7.10;4.70;;;18.10;91.30;;;;;;5134633;27;20054;-67
2023/06/12 00:37:45;;;;;;;5.45;4.65;;;18.10;91.20;;;;;;5136530;27;20365;-68
2023/06/12 00:40:11;;;;;;;6.22;4.70;;;18.00;91.20;;;;;;5135884;27;20038;-67
2023/06/12 00:42:45;;;;;;;8.70;4.30;;;18.00;91.10;;;;;;5136624;27;20047;-66
2023/06/12 00:45:13;;;;;;;7.25;4.72;;;18.00;91.30;;;;;;5136027;27;20596;-67
2023/06/12 00:47:39;;;;;;;7.25;4.97;;;18.00;91.00;;;;;;5136528;27;20027;-67
2023/06/12 00:50:08;;;;;;;7.78;5.03;;;18.00;91.10;;;;;;5135925;27;20057;-67
2023/06/12 00:52:34;;;;;;;6.32;4.75;;;17.90;91.20;;;;;;5136280;27;20019;-67
2023/06/12 00:55:01;;;;;;;6.32;4.38;;;17.90;91.10;;;;;;5135813;27;20535;-67
2023/06/12 00:57:27;;;;;;;5.85;4.70;;;17.90;91.20;;;;;;5136181;27;20030;-67
2023/06/12 00:59:53;;;;;;;9.13;4.82;;;17.90;91.50;;;;;;5117290;27;20031;-67
2023/06/12 01:02:23;;;;;;;6.07;4.60;;;17.80;91.40;;;;;;5118263;27;20107;-66
2023/06/12 01:04:50;;;;;;;8.80;4.65;;;17.80;91.40;;;;;;5114449;28;20326;-66
2023/06/12 01:07:31;;;;;;;8.70;4.63;;;17.80;91.40;;;;;;5115187;28;20019;-67
2023/06/12 01:10:13;;;;;;;6.25;4.78;;;17.70;91.50;;;;;;5115034;28;20119;-68
2023/06/12 01:12:40;;;;;;;5.90;4.00;;;17.70;91.90;;;;;;5115097;28;20384;-67
2023/06/12 01:15:06;;;;;;;7.20;4.60;;;17.70;92.00;;;;;;5115033;28;20078;-68
2023/06/12 01:17:32;;;;;;;7.25;4.72;;;17.70;91.80;;;;;;5115112;28;20502;-68
2023/06/12 01:20:03;;;;;;;8.23;4.03;;;17.70;91.90;;;;;;5114885;28;20036;-68
2023/06/12 01:22:32;;;;;;;5.75;4.60;;;17.70;92.00;;;;;;5115254;28;20028;-68
2023/06/12 01:25:53;;;;;;;8.07;3.95;;;17.60;92.00;;;;;;5114847;28;20035;-68
2023/06/12 01:28:37;;;;;;;7.37;4.17;;;17.60;92.30;;;;;;5103594;28;20039;-68
2023/06/12 01:31:15;;;;;;;4.90;4.28;;;17.60;92.10;;;;;;5114683;28;20305;-67
2023/06/12 01:33:47;;;;;;;6.82;4.90;;;17.50;91.90;;;;;;5115053;28;20024;-68
2023/06/12 01:36:19;;;;;;;8.75;4.80;;;17.50;92.40;;;;;;5114586;28;20110;-68
2023/06/12 01:38:49;;;;;;;7.25;4.45;;;17.50;92.40;;;;;;5115081;28;20070;-68
2023/06/12 01:41:16;;;;;;;7.75;4.22;;;17.50;92.00;;;;;;5114402;28;20114;-68
2023/06/12 01:43:42;;;;;;;5.63;3.97;;;17.50;92.30;;;;;;5114742;28;20081;-68
2023/06/12 01:46:08;;;;;;;10.93;4.10;;;17.40;92.30;;;;;;5114369;28;20047;-68
2023/06/12 01:48:34;;;;;;;6.00;4.60;;;17.40;91.90;;;;;;5114583;28;20038;-68
2023/06/12 01:51:00;;;;;;;6.55;4.47;;;17.40;91.90;;;;;;5114253;28;20456;-69
2023/06/12 01:53:25;;;;;;;5.97;4.45;;;17.40;92.10;;;;;;5114791;28;20072;-68
2023/06/12 01:55:53;;;;;;;6.82;4.82;;;17.40;92.20;;;;;;5114538;28;20031;-67
2023/06/12 01:58:18;;;;;;;4.78;3.92;;;17.30;92.50;;;;;;5114102;28;20456;-68
2023/06/12 02:00:44;;;;;;;7.75;4.70;;;17.30;92.30;;;;;;5114412;28;20075;-68
2023/06/12 02:03:10;;;;;;;8.15;4.18;;;17.30;92.50;;;;;;5113977;28;20030;-68
2023/06/12 02:05:35;;;;;;;6.22;4.68;;;17.30;92.70;;;;;;5114329;28;20102;-68
2023/06/12 02:08:01;;;;;;;4.80;4.30;;;17.30;92.50;;;;;;5113809;28;20035;-68
2023/06/12 02:10:27;;;;;;;7.68;4.20;;;17.30;92.70;;;;;;5114287;28;20613;-68
2023/06/12 02:12:52;;;;;;;6.75;4.65;;;17.20;92.50;;;;;;5114178;28;20437;-68
2023/06/12 02:15:19;;;;;;;10.07;4.70;;;17.20;92.80;;;;;;5113708;28;20372;-68
2023/06/12 02:17:45;;;;;;;7.40;4.75;;;17.20;92.60;;;;;;5113810;28;20032;-67
2023/06/12 02:20:11;;;;;;;6.43;4.30;;;17.20;92.80;;;;;;5113677;28;20024;-68
2023/06/12 02:22:37;;;;;;;10.15;4.45;;;17.20;92.70;;;;;;5114068;28;20080;-68
2023/06/12 02:25:03;;;;;;;7.68;4.63;;;17.20;93.00;;;;;;5113583;28;20035;-68
2023/06/12 02:27:29;;;;;;;9.57;4.78;;;17.20;92.90;;;;;;5113913;28;20024;-68
2023/06/12 02:29:55;;;;;;;8.02;4.70;;;17.20;92.80;;;;;;5125470;27;20023;-67
2023/06/12 02:32:20;;;;;;;5.03;4.50;;;17.10;92.90;;;;;;5133989;27;20117;-67
2023/06/12 02:34:47;;;;;;;8.07;5.03;;;17.20;93.00;;;;;;5134042;27;20023;-67
2023/06/12 02:37:12;;;;;;;7.07;4.45;;;17.20;93.00;;;;;;5133956;27;20080;-68
2023/06/12 02:39:38;;;;;;;4.60;4.15;;;17.20;92.80;;;;;;5134222;27;20118;-68
2023/06/12 02:42:04;;;;;;;6.70;4.25;;;17.20;92.90;;;;;;5133497;27;20038;-68
2023/06/12 02:44:29;;;;;;;11.25;4.40;;;17.20;92.50;;;;;;5134130;27;20084;-68
2023/06/12 02:46:57;;;;;;;6.25;3.83;;;17.20;92.70;;;;;;5133607;27;20043;-68
2023/06/12 02:49:29;;;;;;;7.70;4.25;;;17.20;92.70;;;;;;5133526;27;20043;-68
2023/06/12 02:51:56;;;;;;;8.63;4.15;;;17.20;92.50;;;;;;5134087;27;20114;-68
2023/06/12 02:54:26;;;;;;;8.70;4.35;;;17.20;92.60;;;;;;5133654;27;20027;-68
2023/06/12 02:56:52;;;;;;;6.60;4.05;;;17.20;92.50;;;;;;5134176;27;20035;-67
2023/06/12 02:59:19;;;;;;;6.85;4.40;;;17.10;92.10;;;;;;5133487;27;20074;-67
2023/06/12 03:01:45;;;;;;;7.70;4.32;;;17.10;92.40;;;;;;5124232;27;20023;-67
2023/06/12 03:04:12;;;;;;;6.85;4.85;;;17.10;92.30;;;;;;5113014;28;20102;-67
2023/06/12 03:06:39;;;;;;;6.95;4.07;;;17.10;92.40;;;;;;5112972;28;20490;-67
2023/06/12 03:09:08;;;;;;;5.32;4.28;;;17.10;92.50;;;;;;5112864;28;20115;-67
2023/06/12 03:11:38;;;;;;;9.07;3.95;;;17.10;92.50;;;;;;5113011;28;20027;-67
2023/06/12 03:14:05;;;;;;;6.07;3.90;;;17.00;92.50;;;;;;5112891;28;20024;-67
2023/06/12 03:16:31;;;;;;;6.35;3.92;;;17.10;92.90;;;;;;5113363;28;20081;-67
2023/06/12 03:18:57;;;;;;;7.45;4.60;;;17.00;92.60;;;;;;5113514;28;20031;-67
2023/06/12 03:21:23;;;;;;;6.15;4.30;;;17.00;92.80;;;;;;5112826;28;20092;-67
2023/06/12 03:23:49;;;;;;;6.30;4.85;;;17.00;92.90;;;;;;5112911;28;20035;-67
2023/06/12 03:26:15;;;;;;;8.40;4.60;;;17.00;93.00;;;;;;5112446;28;20391;-67
2023/06/12 03:28:41;;;;;;;10.80;4.65;;;16.90;93.00;;;;;;5114905;28;20031;-67
2023/06/12 03:31:06;;;;;;;8.85;4.90;;;16.90;93.40;;;;;;5116971;28;20028;-67
2023/06/12 03:33:32;;;;;;;5.50;4.28;;;16.80;93.30;;;;;;5117259;28;20516;-67
2023/06/12 03:35:57;;;;;;;9.43;4.75;;;16.80;93.40;;;;;;5117315;28;20541;-67
2023/06/12 03:38:23;;;;;;;5.38;4.20;;;16.80;93.60;;;;;;5116477;28;20035;-67
2023/06/12 03:40:49;;;;;;;10.48;4.18;;;16.80;93.70;;;;;;5117074;28;20444;-67
2023/06/12 03:43:14;;;;;;;6.65;4.57;;;16.80;93.60;;;;;;5098120;28;20027;-67
2023/06/12 03:45:40;;;;;;;5.97;4.35;;;16.90;93.40;;;;;;5116699;28;20138;-67
2023/06/12 03:48:06;;;;;;;7.20;4.38;;;16.80;92.80;;;;;;5116156;28;20380;-67
2023/06/12 03:50:31;;;;;;;5.55;3.78;;;16.80;93.20;;;;;;5116646;28;20111;-67
2023/06/12 03:52:57;;;;;;;6.32;3.97;;;16.80;93.30;;;;;;5117063;28;20027;-67
2023/06/12 03:55:23;;;;;;;8.13;4.25;;;16.90;93.20;;;;;;5116723;28;20020;-67
2023/06/12 03:57:49;;;;;;;4.68;3.83;;;16.90;93.30;;;;;;5116811;28;20031;-67
2023/06/12 04:00:15;;;;;;;6.95;4.30;;;16.90;93.60;;;;;;5116413;28;20107;-67
2023/06/12 04:02:41;;;;;;;8.80;4.13;;;17.00;93.00;;;;;;5116710;28;20032;-67
2023/06/12 04:05:08;;;;;;;6.05;4.15;;;17.00;93.10;;;;;;5115988;28;20027;-68
2023/06/12 04:07:36;;;;;;;10.25;5.22;;;17.00;93.30;;;;;;5116826;28;20064;-68
2023/06/12 04:10:03;;;;;;;6.20;4.40;;;17.10;92.80;;;;;;5116433;28;20039;-67
2023/06/12 04:12:28;;;;;;;9.50;4.55;;;17.10;92.80;;;;;;5116499;28;20031;-68
2023/06/12 04:14:54;;;;;;;6.18;4.40;;;17.20;92.80;;;;;;5117615;28;20031;-68
2023/06/12 04:17:19;;;;;;;5.65;4.05;;;17.30;92.80;;;;;;5116768;28;20023;-68
2023/06/12 04:19:48;;;;;;;5.95;4.18;;;17.30;92.60;;;;;;5116529;28;20404;-68
2023/06/12 04:22:15;;;;;;;8.68;3.80;;;17.40;92.10;;;;;;5115964;28;20028;-67
2023/06/12 04:24:42;;;;;;;6.75;4.07;;;17.50;91.80;;;;;;5115967;28;20491;-68
2023/06/12 04:27:09;;;;;;;8.88;3.90;;;17.60;91.80;;;;;;5115945;28;20092;-68
2023/06/12 04:29:37;;;;;;;6.40;3.63;;;17.70;91.50;;;;;;5116209;28;20035;-68
2023/06/12 04:32:05;;;;;;;4.93;3.90;;;17.80;91.50;;;;;;5118799;27;20081;-68
2023/06/12 04:34:31;;;;;;;9.07;3.90;;;18.00;90.90;;;;;;5115784;28;20028;-68
2023/06/12 04:36:57;;;;;;;6.60;3.65;;;18.10;90.80;;;;;;5117385;27;20026;-66
2023/06/12 04:39:23;;;;;;;7.03;4.18;;;18.40;90.50;;;;;;5115521;28;20043;-66
2023/06/12 04:41:51;;;;;;;5.55;3.80;;;18.60;89.60;;;;;;5115698;28;20054;-68
2023/06/12 04:44:18;;;;;;;6.80;4.40;;;18.80;89.70;;;;;;5115638;28;20020;-67
2023/06/12 04:46:43;;;;;;;4.00;3.60;;;19.20;86.60;;;;;;5115960;28;20058;-68
2023/06/12 04:49:09;;;;;;;6.38;3.70;;;19.50;86.60;;;;;;5115137;28;20103;-67
2023/06/12 04:51:35;;;;;;;5.60;3.47;;;19.70;84.00;;;;;;5115924;28;20031;-66
2023/06/12 04:54:01;;;;;;;5.50;3.53;;;20.10;83.40;;;;;;5115794;28;20103;-67
2023/06/12 04:56:27;;;;;;;8.15;3.85;;;20.50;81.90;;;;;;5115387;28;20068;-68
2023/06/12 04:58:53;;;;;;;5.40;3.25;;;21.00;80.30;;;;;;5115573;28;20023;-67
2023/06/12 05:01:21;;;;;;;5.07;4.00;;;21.40;76.70;;;;;;5115357;28;20023;-68
2023/06/12 05:03:49;;;;;;;5.47;3.80;;;21.80;75.90;;;;;;5115653;28;20054;-68
2023/06/12 05:06:15;;;;;;;5.95;3.50;;;22.50;72.70;;;;;;5116256;27;20023;-68
2023/06/12 05:08:42;;;;;;;6.47;3.22;;;23.20;68.90;;;;;;5115324;28;20031;-68
2023/06/12 05:11:07;;;;;;;7.57;3.58;;;23.70;66.90;;;;;;5115499;28;20032;-68
2023/06/12 05:13:33;;;;;;;7.70;3.58;;;24.10;64.90;;;;;;5114917;28;20032;-68
2023/06/12 05:15:59;;;;;;;6.10;3.30;;;24.70;63.60;;;;;;5115612;28;20024;-68
2023/06/12 05:18:24;;;;;;;5.10;3.10;;;25.00;60.60;;;;;;5114563;28;20028;-68
2023/06/12 05:20:50;;;;;;;7.05;3.42;;;25.30;59.90;;;;;;5115152;28;20023;-67
2023/06/12 05:23:15;;;;;;;10.07;3.40;;;25.50;57.80;;;;;;5114817;28;20028;-68
2023/06/12 05:25:41;;;;;;;6.07;3.38;;;25.40;57.10;;;;;;5115047;28;20361;-68
2023/06/12 05:28:07;;;;;;;4.60;2.60;;;25.40;57.00;;;;;;5115195;28;20455;-68
2023/06/12 05:30:33;;;;;;;6.07;3.35;;;25.60;57.40;;;;;;5114735;28;20063;-68
2023/06/12 05:32:59;;;;;;;7.13;3.33;;;25.40;55.60;;;;;;5115451;28;20407;-68
2023/06/12 05:35:25;;;;;;;5.20;3.58;;;25.50;57.80;;;;;;5114508;28;20024;-68
2023/06/12 05:37:51;;;;;;;7.85;3.65;;;25.60;56.80;;;;;;5114946;28;20019;-68
2023/06/12 05:40:16;;;;;;;6.00;3.40;;;25.70;56.10;;;;;;5114325;28;20038;-68
2023/06/12 05:42:42;;;;;;;5.85;3.45;;;25.80;55.90;;;;;;5114772;28;20028;-68
2023/06/12 05:45:08;;;;;;;9.40;4.10;;;25.70;55.70;;;;;;5114641;28;20054;-67
2023/06/12 05:47:33;;;;;;;5.72;3.30;;;25.50;55.70;;;;;;5114300;28;20031;-67
2023/06/12 05:50:00;;;;;;;5.88;4.03;;;25.60;57.00;;;;;;5114694;28;20031;-68
2023/06/12 05:52:25;;;;;;;7.43;3.78;;;25.90;57.20;;;;;;5113724;28;20035;-68
2023/06/12 05:54:51;;;;;;;7.20;3.58;;;25.90;57.40;;;;;;5114648;28;20015;-67
2023/06/12 05:57:17;;;;;;;4.90;3.80;;;26.00;56.10;;;;;;5114129;28;20050;-68
2023/06/12 05:59:44;;;;;;;4.63;3.55;;;26.50;55.00;;;;;;5114488;28;20090;-69
2023/06/12 06:02:10;;;;;;;8.55;4.10;;;26.80;53.70;;;;;;5114388;28;20027;-68
2023/06/12 06:04:36;;;;;;;9.73;3.67;;;27.20;53.30;;;;;;5114034;28;20027;-68
2023/06/12 06:07:01;;;;;;;4.90;3.83;;;27.50;53.10;;;;;;5114282;28;20073;-67
2023/06/12 06:09:27;;;;;;;4.75;3.38;;;27.60;51.20;;;;;;5113935;28;20039;-68
2023/06/12 06:11:53;;;;;;;5.22;3.35;;;27.80;52.10;;;;;;5114107;28;20048;-68
2023/06/12 06:14:19;;;;;;;4.97;3.35;;;28.20;50.50;;;;;;5113708;28;20031;-68
2023/06/12 06:16:45;;;;;;;8.27;3.50;;;28.40;50.20;;;;;;5113810;28;20024;-68
2023/06/12 06:19:10;;;;;;;5.57;3.42;;;28.60;50.10;;;;;;5113824;28;20476;-67
2023/06/12 06:21:36;;;;;;;3.55;3.22;;;29.10;48.30;;;;;;5113729;28;20034;-68
2023/06/12 06:24:02;;;;;;;4.05;3.28;;;29.30;48.30;;;;;;5114064;28;20456;-67
2023/06/12 06:26:28;;;;;;;4.68;3.45;;;29.30;47.10;;;;;;5116125;27;20022;-68
2023/06/12 06:28:54;;;;;;;10.05;3.80;;;29.50;48.10;;;;;;5113858;28;20032;-68
2023/06/12 06:31:20;;;;;;;6.13;3.40;;;28.80;47.10;;;;;;5113437;28;20028;-67
2023/06/12 06:33:45;;;;;;;5.70;3.50;;;28.60;49.00;;;;;;5113990;28;20444;-67
2023/06/12 06:36:11;;;;;;;8.90;4.13;;;28.00;48.20;;;;;;5113552;28;20024;-67
2023/06/12 06:38:37;;;;;;;4.72;4.15;;;26.90;50.10;;;;;;5113445;28;20057;-67
2023/06/12 06:41:02;;;;;;;5.32;3.92;;;26.10;52.00;;;;;;5127650;27;20448;-67
2023/06/12 06:43:28;;;;;;;4.93;3.92;;;25.70;53.30;;;;;;5133762;27;20031;-67
2023/06/12 06:45:54;;;;;;;6.75;4.05;;;25.10;54.90;;;;;;5134090;27;20039;-67
2023/06/12 06:48:19;;;;;;;6.97;4.00;;;24.90;56.20;;;;;;5133679;27;20027;-67
2023/06/12 06:50:45;;;;;;;10.75;4.32;;;24.50;58.70;;;;;;5134028;27;20451;-66
2023/06/12 06:53:11;;;;;;;6.93;4.05;;;25.10;58.50;;;;;;5134218;27;20019;-67
2023/06/12 06:55:37;;;;;;;8.25;4.38;;;24.90;57.90;;;;;;5133358;27;20076;-67
2023/06/12 06:58:03;;;;;;;6.40;3.88;;;24.30;58.50;;;;;;5133693;27;20459;-67
2023/06/12 07:00:29;;;;;;;5.88;3.72;;;24.70;58.50;;;;;;5128148;27;20059;-67
2023/06/12 07:02:54;;;;;;;5.13;3.60;;;24.90;57.40;;;;;;5112515;28;20030;-66
2023/06/12 07:05:21;;;;;;;6.40;3.65;;;24.50;57.00;;;;;;5112816;28;20106;-65
2023/06/12 07:07:48;;;;;;;5.03;3.35;;;24.70;58.30;;;;;;5113252;28;20068;-66
2023/06/12 07:10:15;;;;;;;7.63;3.50;;;25.70;56.50;;;;;;5113210;28;20023;-67
2023/06/12 07:12:41;;;;;;;7.82;4.10;;;26.30;55.50;;;;;;5112676;28;20031;-68
2023/06/12 07:15:07;;;;;;;4.38;3.50;;;26.90;53.70;;;;;;5113361;28;20324;-68
2023/06/12 07:17:33;;;;;;;3.92;3.22;;;27.50;52.90;;;;;;5112693;28;20031;-66
2023/06/12 07:19:59;;;;;;;9.00;3.85;;;28.20;51.70;;;;;;5113054;28;20031;-68
2023/06/12 07:22:27;;;;;;;8.30;3.67;;;28.20;50.60;;;;;;5112692;28;20106;-68
2023/06/12 07:24:52;;;;;;;6.25;3.45;;;28.20;48.60;;;;;;5113025;28;20035;-68
2023/06/12 07:27:18;;;;;;;5.90;3.33;;;27.60;50.30;;;;;;5113060;28;20026;-66
2023/06/12 07:29:44;;;;;;;4.93;3.88;;;26.90;50.70;;;;;;5112713;28;20050;-68
2023/06/12 07:32:10;;;;;;;7.13;3.40;;;26.20;51.50;;;;;;5112757;28;20108;-66
2023/06/12 07:34:36;;;;;;;5.35;3.45;;;25.40;53.80;;;;;;5112623;28;20016;-67
2023/06/12 07:37:02;;;;;;;4.35;3.85;;;25.70;56.40;;;;;;5113053;28;20110;-67
2023/06/12 07:39:28;;;;;;;7.30;3.63;;;25.80;55.60;;;;;;5112598;28;20107;-67
2023/06/12 07:41:54;;;;;;;8.05;4.32;;;25.70;54.70;;;;;;5112996;28;20024;-67
2023/06/12 07:44:20;;;;;;;5.05;3.38;;;25.10;54.50;;;;;;5112953;28;20031;-66
2023/06/12 07:46:46;;;;;;;5.70;3.72;;;24.70;57.00;;;;;;5111881;28;20055;-68
2023/06/12 07:49:13;;;;;;;8.77;4.35;;;24.50;57.90;;;;;;5112746;28;20032;-68
2023/06/12 07:51:39;;;;;;;9.80;4.63;;;24.30;57.00;;;;;;5112416;28;20032;-68
2023/06/12 07:54:05;;;;;;;5.75;3.97;;;23.90;58.60;;;;;;5112896;28;20068;-67
2023/06/12 07:56:32;;;;;;;5.68;4.05;;;23.40;59.70;;;;;;5112190;28;20455;-68
2023/06/12 07:59:06;;;;;;;4.75;3.35;;;22.90;60.30;;;;;;5112885;28;20182;-68
2023/06/12 08:01:34;;;;;;;4.75;3.80;;;23.00;61.40;;;;;;5112498;28;20035;-67
2023/06/12 08:04:02;;;;;;;7.10;4.20;;;22.90;62.70;;;;;;5112963;28;20063;-66
2023/06/12 08:06:29;;;;;;;6.90;3.88;;;22.50;61.40;;;;;;5112542;28;20034;-67
2023/06/12 08:08:56;;;;;;;6.97;4.05;;;22.40;62.70;;;;;;5112382;28;20034;-66
2023/06/12 08:11:21;;;;;;;7.10;4.10;;;22.60;64.00;;;;;;5112772;28;20028;-67
2023/06/12 08:13:47;;;;;;;6.18;4.00;;;22.70;62.70;;;;;;5112530;28;20529;-67
2023/06/12 08:16:12;;;;;;;5.53;3.40;;;22.70;64.20;;;;;;5116242;28;20058;-66
2023/06/12 08:18:38;;;;;;;5.07;3.30;;;23.00;63.40;;;;;;5115816;28;20074;-67
2023/06/12 08:21:04;;;;;;;5.93;3.78;;;23.00;62.10;;;;;;5116489;28;20023;-67
2023/06/12 08:23:29;;;;;;;3.95;3.55;;;23.00;61.20;;;;;;5115983;28;20034;-67
2023/06/12 08:25:55;;;;;;;9.43;3.63;;;23.10;61.90;;;;;;5116432;28;20452;-66
2023/06/12 08:28:21;;;;;;;5.60;3.63;;;22.90;62.30;;;;;;5118782;27;20425;-67
2023/06/12 08:30:46;;;;;;;4.82;3.80;;;22.80;61.00;;;;;;5115732;28;20536;-67
2023/06/12 08:33:15;;;;;;;5.38;3.60;;;22.80;61.20;;;;;;5116217;28;20028;-66
2023/06/12 08:35:41;;;;;;;5.18;4.18;;;22.80;62.80;;;;;;5113564;27;20015;-67
2023/06/12 08:38:07;;;;;;;7.18;3.78;;;22.30;63.30;;;;;;5136723;27;20026;-67
2023/06/12 08:40:32;;;;;;;5.07;3.70;;;22.10;62.80;;;;;;5135993;27;20151;-68
2023/06/12 08:42:58;;;;;;;7.80;4.20;;;22.10;63.90;;;;;;5136495;27;20023;-67
2023/06/12 08:45:26;;;;;;;4.88;3.75;;;22.00;64.50;;;;;;5135941;27;20463;-68
2023/06/12 08:47:53;;;;;;;8.07;4.28;;;22.10;64.80;;;;;;5117902;27;20467;-68
2023/06/12 08:50:19;;;;;;;6.75;3.30;;;22.10;64.70;;;;;;5136314;27;20027;-68
2023/06/12 08:52:49;;;;;;;6.55;3.33;;;22.20;65.30;;;;;;5118535;27;20027;-67
2023/06/12 08:55:16;;;;;;;6.33;3.33;;;22.20;63.90;;;;;;5115858;28;20031;-68
2023/06/12 08:57:45;;;;;;;7.15;3.90;;;22.20;65.20;;;;;;5115210;28;20031;-68
2023/06/12 09:00:13;;;;;;;9.50;3.92;;;22.10;63.80;;;;;;5115707;28;20031;-68
2023/06/12 09:02:51;;;;;;;6.20;3.47;;;22.20;64.90;;;;;;5115127;28;20034;-68
2023/06/12 09:05:19;;;;;;;4.93;3.85;;;22.30;63.20;;;;;;5115561;28;20024;-66
2023/06/12 09:07:46;;;;;;;6.00;3.22;;;22.50;64.00;;;;;;5114894;28;20418;-67
2023/06/12 09:10:14;;;;;;;4.88;3.70;;;22.50;64.40;;;;;;5115291;28;20035;-68
2023/06/12 09:12:43;;;;;;;4.40;3.53;;;22.50;64.40;;;;;;5114971;28;20032;-68
2023/06/12 09:15:10;;;;;;;5.20;3.75;;;22.60;65.20;;;;;;5115501;28;20020;-68
2023/06/12 09:17:37;;;;;;;7.47;4.32;;;22.60;62.60;;;;;;5114817;28;20028;-68
2023/06/12 09:20:05;;;;;;;5.65;4.13;;;22.50;63.40;;;;;;5115179;28;20556;-67
2023/06/12 09:22:30;;;;;;;5.35;4.05;;;22.40;64.60;;;;;;5114504;28;20504;-68
2023/06/12 09:24:57;;;;;;;8.10;3.10;;;22.40;63.60;;;;;;5115795;28;20024;-67
2023/06/12 09:27:23;;;;;;;5.60;3.35;;;22.50;61.60;;;;;;5114893;28;20040;-68
2023/06/12 09:29:48;;;;;;;4.15;3.35;;;22.60;60.30;;;;;;5116056;28;20387;-68
2023/06/12 09:32:15;;;;;;;9.23;3.85;;;22.50;59.40;;;;;;5116185;28;20031;-67
2023/06/12 09:34:50;;;;;;;9.98;3.97;;;22.50;61.30;;;;;;5116693;28;20064;-68
2023/06/12 09:37:16;;;;;;;4.72;3.40;;;22.50;61.40;;;;;;5114971;28;20353;-67
2023/06/12 09:39:42;;;;;;;5.00;3.58;;;22.50;62.20;;;;;;5114479;28;20030;-68
2023/06/12 09:42:10;;;;;;;5.15;2.90;;;22.40;60.40;;;;;;5114659;28;20376;-67
2023/06/12 09:44:38;;;;;;;5.72;3.47;;;22.30;60.70;;;;;;5114314;28;20024;-68
2023/06/12 09:47:05;;;;;;;6.95;3.35;;;22.40;61.40;;;;;;5115021;28;20069;-67
2023/06/12 09:49:32;;;;;;;6.70;3.80;;;22.50;62.00;;;;;;5095905;28;20448;-70
2023/06/12 09:52:03;;;;;;;4.13;3.20;;;22.30;61.50;;;;;;5114556;28;20032;-68
2023/06/12 09:54:31;;;;;;;6.05;4.00;;;22.30;62.50;;;;;;5114533;28;20063;-67
2023/06/12 09:56:59;;;;;;;4.57;3.42;;;22.50;62.40;;;;;;5114500;28;20368;-66
2023/06/12 09:59:30;;;;;;;4.22;3.40;;;22.30;63.80;;;;;;5114407;28;20020;-66
2023/06/12 10:02:08;;;;;;;;;;;22.30;62.40;;;;;;5114777;28;20066;-67
2023/06/12 10:04:42;;;;;;;4.57;3.28;;;22.40;61.70;;;;;;5113899;28;20355;-67
2023/06/12 10:07:15;;;;;;;8.10;3.22;;;22.50;59.90;;;;;;5114228;28;20023;-66
2023/06/12 10:09:42;;;;;;;3.60;2.97;;;22.60;60.30;;;;;;5113561;28;20483;-67
2023/06/12 10:12:08;;;;;;;4.45;3.20;;;22.70;59.20;;;;;;5114127;28;20032;-67
2023/06/12 10:14:35;;;;;;;5.85;3.60;;;22.60;58.20;;;;;;5113743;28;20038;-67
2023/06/12 10:17:02;;;;;;;8.55;3.15;;;22.70;58.80;;;;;;5114188;28;20031;-67
2023/06/12 10:19:30;;;;;;;5.43;2.85;;;22.90;58.20;;;;;;5114109;28;20028;-67
2023/06/12 10:21:56;;;;;;;7.70;3.25;;;22.90;57.00;;;;;;5113509;28;20030;-68
2023/06/12 10:24:23;;;;;;;5.65;3.60;;;23.00;58.70;;;;;;5113680;28;20024;-67
2023/06/12 10:26:51;;;;;;;3.45;3.00;;;23.00;58.40;;;;;;5113551;28;20024;-67
2023/06/12 10:29:28;;;;;;;4.50;3.10;;;23.10;57.00;;;;;;5114831;27;20023;-67
2023/06/12 10:31:54;;;;;;;4.75;2.75;;;23.10;56.70;;;;;;5116040;27;20024;-67
2023/06/12 10:34:20;;;;;;;5.22;3.28;;;23.20;56.70;;;;;;5113494;28;20028;-67
2023/06/12 10:36:47;;;;;;;5.78;3.15;;;23.30;56.70;;;;;;5113327;28;20024;-67
2023/06/12 10:39:17;;;;;;;2.75;2.40;;;23.40;57.00;;;;;;5113761;28;20102;-67
2023/06/12 10:41:53;;;;;;;8.45;3.13;;;23.40;56.90;;;;;;5113346;28;20024;-67
2023/06/12 10:44:49;;;;;;;3.28;2.97;;;23.40;56.50;;;;;;5113749;28;20027;-67
2023/06/12 10:47:20;;;;;;;6.03;3.28;;;23.50;58.50;;;;;;5115114;27;20130;-67
2023/06/12 10:49:58;;;;;;;4.18;3.17;;;23.50;57.40;;;;;;5133696;27;20031;-67
2023/06/12 10:52:25;;;;;;;3.30;3.00;;;23.40;55.90;;;;;;5134054;27;20415;-67
2023/06/12 10:55:20;;;;;;;11.57;3.40;;;23.30;57.50;;;;;;5133489;27;20027;-67
2023/06/12 10:57:57;;;;;;;5.70;3.05;;;23.30;55.80;;;;;;5131099;27;20458;-67
2023/06/12 11:00:27;;;;;;;6.30;3.30;;;23.40;57.30;;;;;;5133872;27;20114;-67
2023/06/12 11:03:06;;;;;;;3.33;2.80;;;23.50;58.50;;;;;;5133507;27;20023;-67
2023/06/12 11:05:33;;;;;;;3.88;3.20;;;23.60;57.10;;;;;;5133840;27;20027;-67
2023/06/12 11:08:01;;;;;;;3.90;3.03;;;23.70;55.80;;;;;;5133155;27;20028;-67
2023/06/12 11:10:27;;;;;;;3.80;2.75;;;23.70;54.40;;;;;;5133601;27;20080;-67
2023/06/12 11:12:54;;;;;;;3.90;2.70;;;23.70;55.00;;;;;;5133124;27;20076;-67
2023/06/12 11:15:21;;;;;;;4.40;2.63;;;23.90;57.30;;;;;;5133459;27;20015;-67
2023/06/12 11:17:48;;;;;;;4.40;2.88;;;24.10;56.00;;;;;;5133095;27;20098;-67
2023/06/12 11:20:14;;;;;;;4.35;2.97;;;24.10;53.70;;;;;;5133409;27;20023;-67
2023/06/12 11:22:40;;;;;;;6.20;2.80;;;24.10;52.60;;;;;;5132916;27;20079;-67
2023/06/12 11:25:06;;;;;;;4.85;2.55;;;24.20;51.30;;;;;;5133541;28;20015;-67
2023/06/12 11:27:36;;;;;;;4.22;2.60;;;24.30;53.40;;;;;;5133576;28;20436;-67
2023/06/12 11:30:12;;;;;;;4.40;2.72;;;24.30;53.20;;;;;;5132783;28;20031;-67
2023/06/12 11:32:39;;;;;;;6.93;2.65;;;24.50;53.80;;;;;;5133039;28;20387;-70
2023/06/12 11:35:07;;;;;;;4.75;2.70;;;24.40;52.70;;;;;;5133358;28;20027;-67
2023/06/12 11:37:32;;;;;;;4.97;2.80;;;24.30;51.00;;;;;;5133243;28;20034;-67
2023/06/12 11:40:09;;;;;;;4.70;2.85;;;24.30;52.10;;;;;;5132693;28;20031;-67
2023/06/12 11:42:44;;;;;;;4.05;2.58;;;24.40;52.60;;;;;;5133151;28;20027;-67
2023/06/12 11:45:14;;;;;;;4.10;2.50;;;24.50;51.20;;;;;;5133198;28;20479;-67
2023/06/12 11:47:44;;;;;;;4.30;2.90;;;24.50;49.90;;;;;;5133146;28;20050;-69
2023/06/12 11:50:15;;;;;;;3.83;2.55;;;24.30;50.00;;;;;;5135957;27;20371;-67
2023/06/12 11:52:41;;;;;;;;;;;24.30;52.00;;;;;;5137425;27;20036;-67
2023/06/12 11:55:09;;;;;;;3.53;2.30;;;24.30;52.00;;;;;;5137437;27;19947;-66
2023/06/12 11:57:36;;;;;;;4.70;2.78;;;24.20;49.30;;;;;;5137414;27;20023;-67
2023/06/12 12:00:13;;;;;;;5.35;2.65;;;24.20;49.40;;;;;;5136913;27;20042;-66
2023/06/12 12:02:43;;;;;;;5.57;2.10;;;24.20;49.10;;;;;;5137032;27;20026;-67
2023/06/12 12:05:11;;;;;;;8.77;2.22;;;24.20;50.80;;;;;;5137136;27;20080;-67
2023/06/12 12:07:40;;;;;;;3.65;2.33;;;24.20;48.00;;;;;;5137098;27;20038;-67
2023/06/12 12:10:11;;;;;;;4.88;2.30;;;24.20;50.40;;;;;;5136585;27;20023;-67
2023/06/12 12:13:00;;;;;;;6.20;2.25;;;24.20;49.00;;;;;;5137102;27;20106;-67
2023/06/12 12:15:28;;;;;;;5.75;2.70;;;24.20;49.10;;;;;;5136833;27;20493;-67
2023/06/12 12:17:53;;;;;;;7.75;2.50;;;24.20;49.10;;;;;;5136321;27;20384;-67
2023/06/12 12:20:22;;;;;;;4.93;2.40;;;24.10;48.80;;;;;;5118525;27;20038;-67
2023/06/12 12:22:50;;;;;;;5.07;2.20;;;24.00;46.60;;;;;;5136569;27;20071;-67
2023/06/12 12:25:22;;;;;;;6.80;2.42;;;23.80;47.10;;;;;;5136760;27;20032;-67
2023/06/12 12:27:49;;;;;;;4.38;2.20;;;23.80;48.90;;;;;;5136343;27;20030;-68
2023/06/12 12:30:16;;;;;;;2.67;2.15;;;23.70;48.70;;;;;;5133785;27;20088;-68
2023/06/12 12:32:46;;;;;;;5.00;2.30;;;23.70;49.90;;;;;;5136152;27;20507;-66
2023/06/12 12:35:12;;;;;;;3.63;2.33;;;23.70;51.00;;;;;;5136658;27;20055;-68
2023/06/12 12:37:38;;;;;;;2.97;2.10;;;23.60;47.00;;;;;;5135901;27;20027;-68
2023/06/12 12:40:09;;;;;;;3.92;2.22;;;23.60;49.30;;;;;;5117388;27;20028;-67
2023/06/12 12:42:35;;;;;;;3.13;2.60;;;23.50;47.50;;;;;;5126728;27;20494;-67
2023/06/12 12:45:01;;;;;;;5.05;2.40;;;23.40;48.90;;;;;;5135800;27;20027;-68
2023/06/12 12:47:27;;;;;;;3.90;2.53;;;23.40;48.70;;;;;;5136367;27;20524;-67
2023/06/12 12:49:52;;;;;;;5.63;2.60;;;23.40;48.40;;;;;;5135639;27;20488;-68